Time;durP1;ratioP1;P1;durP2;ratioP2;P2;SDS_P1;SDS_P2;PMS_P1;PMS_P2;Temp;Humidity;BMP_temperature;BMP_pressure;BME280_temperature;BME280_humidity;BME280_pressure;Samples;Min_cycle;Max_cycle;Signal;HPM_P1;HPM_P2
2023/12/05 00:01:56;;;;;;;21.47;15.10;;;0.40;99.90;;;;;;4954802;28;20176;-31
2023/12/05 00:04:22;;;;;;;22.43;15.57;;;0.40;99.90;;;;;;4972581;28;20206;-32
2023/12/05 00:06:48;;;;;;;24.53;15.87;;;0.40;99.90;;;;;;4989868;28;20195;-30
2023/12/05 00:09:14;;;;;;;22.03;15.53;;;0.40;99.90;;;;;;4956329;28;20234;-32
2023/12/05 00:11:42;;;;;;;23.63;16.20;;;0.40;99.90;;;;;;4972488;28;20214;-31
2023/12/05 00:14:08;;;;;;;27.07;17.20;;;0.40;99.90;;;;;;4955796;28;20202;-30
2023/12/05 00:16:34;;;;;;;26.87;18.03;;;0.40;99.90;;;;;;4949361;28;20188;-30
2023/12/05 00:18:59;;;;;;;28.60;18.27;;;0.40;99.90;;;;;;4975744;28;20184;-31
2023/12/05 00:21:25;;;;;;;26.40;15.57;;;0.50;99.90;;;;;;4976272;28;20188;-30
2023/12/05 00:23:51;;;;;;;24.43;16.10;;;0.50;99.90;;;;;;4975797;28;20269;-31
2023/12/05 00:26:17;;;;;;;23.83;15.27;;;0.50;99.90;;;;;;4975740;28;20198;-31
2023/12/05 00:28:43;;;;;;;24.57;15.40;;;0.50;99.90;;;;;;4975889;28;20241;-31
2023/12/05 00:31:08;;;;;;;23.13;15.60;;;0.50;99.90;;;;;;4960142;28;20187;-30
2023/12/05 00:33:34;;;;;;;22.27;15.37;;;0.60;99.90;;;;;;4974320;28;20219;-33
2023/12/05 00:36:00;;;;;;;22.73;15.23;;;0.60;99.90;;;;;;4957338;28;20176;-31
2023/12/05 00:38:26;;;;;;;20.90;14.20;;;0.60;99.90;;;;;;4967515;28;20192;-31
2023/12/05 00:40:52;;;;;;;20.37;14.07;;;0.60;99.90;;;;;;4959769;28;20183;-33
2023/12/05 00:43:18;;;;;;;22.30;14.23;;;0.60;99.90;;;;;;4994208;28;20294;-31
2023/12/05 00:45:43;;;;;;;26.37;16.63;;;0.60;99.90;;;;;;4957109;28;20207;-31
2023/12/05 00:48:09;;;;;;;21.23;13.83;;;0.60;99.90;;;;;;4975838;28;20183;-31
2023/12/05 00:50:35;;;;;;;22.97;14.00;;;0.70;99.90;;;;;;4959677;28;20211;-32
2023/12/05 00:53:01;;;;;;;22.83;13.83;;;0.70;99.90;;;;;;4959490;28;20204;-33
2023/12/05 00:55:26;;;;;;;20.43;13.50;;;0.80;99.90;;;;;;4959049;28;20195;-31
2023/12/05 00:57:52;;;;;;;25.37;14.37;;;0.80;99.90;;;;;;4992663;28;20188;-30
2023/12/05 01:00:19;;;;;;;22.53;14.13;;;0.90;99.90;;;;;;4976310;28;20186;-30
2023/12/05 01:02:45;;;;;;;22.93;13.93;;;0.90;99.90;;;;;;4974698;28;20250;-32
2023/12/05 01:05:11;;;;;;;20.57;14.13;;;0.90;99.90;;;;;;4975325;28;20246;-32
2023/12/05 01:07:37;;;;;;;18.90;13.03;;;0.90;99.90;;;;;;4974662;28;20187;-33
2023/12/05 01:10:03;;;;;;;18.73;12.93;;;0.90;99.90;;;;;;4975398;28;20179;-33
2023/12/05 01:12:29;;;;;;;21.50;14.23;;;0.90;99.90;;;;;;4992563;28;20198;-32
2023/12/05 01:14:58;;;;;;;20.07;13.53;;;0.90;99.90;;;;;;4947217;28;20269;-32
2023/12/05 01:17:24;;;;;;;21.43;13.83;;;0.90;99.90;;;;;;4959578;28;20275;-32
2023/12/05 01:19:50;;;;;;;26.20;17.07;;;0.90;99.90;;;;;;4974736;28;20230;-32
2023/12/05 01:22:15;;;;;;;28.73;19.27;;;0.80;99.90;;;;;;4967188;28;20211;-31
2023/12/05 01:24:41;;;;;;;27.37;19.47;;;0.80;99.90;;;;;;4974881;28;20211;-32
2023/12/05 01:27:07;;;;;;;32.27;20.50;;;0.80;99.90;;;;;;4974931;28;20180;-32
2023/12/05 01:29:33;;;;;;;33.00;22.60;;;0.80;99.90;;;;;;4958487;28;20279;-32
2023/12/05 01:31:59;;;;;;;28.80;18.80;;;0.80;99.90;;;;;;4957942;28;20199;-33
2023/12/05 01:34:25;;;;;;;28.03;19.67;;;0.70;99.90;;;;;;4957978;28;20212;-32
2023/12/05 01:36:50;;;;;;;22.53;15.97;;;0.70;99.90;;;;;;4957745;28;20184;-32
2023/12/05 01:39:16;;;;;;;20.07;14.43;;;0.70;99.90;;;;;;4974872;28;20194;-32
2023/12/05 01:41:42;;;;;;;19.67;12.90;;;0.70;99.90;;;;;;4974689;28;20180;-32
2023/12/05 01:44:08;;;;;;;12.53;9.30;;;0.70;99.90;;;;;;4957563;28;20194;-32
2023/12/05 01:46:35;;;;;;;10.17;7.10;;;0.70;99.90;;;;;;4974336;28;20191;-32
2023/12/05 01:49:02;;;;;;;9.07;6.40;;;0.80;99.90;;;;;;4974873;28;20182;-32
2023/12/05 01:51:30;;;;;;;9.10;6.47;;;0.80;99.90;;;;;;4974811;28;20187;-32
2023/12/05 01:53:56;;;;;;;8.67;6.27;;;0.90;99.90;;;;;;4958599;28;20246;-32
2023/12/05 01:56:22;;;;;;;9.83;6.73;;;1.00;99.90;;;;;;4957974;28;20272;-32
2023/12/05 01:58:48;;;;;;;10.43;6.47;;;1.00;99.90;;;;;;4974211;28;20190;-33
2023/12/05 02:01:15;;;;;;;13.97;7.50;;;1.10;99.90;;;;;;4957929;28;20277;-32
2023/12/05 02:03:43;;;;;;;10.30;7.00;;;1.10;99.90;;;;;;5001359;23;20235;-27
2023/12/05 02:06:10;;;;;;;9.90;6.77;;;1.20;99.90;;;;;;4974065;28;20195;-27
2023/12/05 02:08:37;;;;;;;10.23;6.63;;;1.30;99.90;;;;;;4974628;28;20174;-27
2023/12/05 02:11:03;;;;;;;9.17;6.53;;;1.20;99.90;;;;;;4990497;28;20190;-27
2023/12/05 02:13:28;;;;;;;9.20;6.30;;;1.20;99.90;;;;;;4992276;28;20215;-27
2023/12/05 02:16:12;;;;;;;8.43;5.60;;;1.20;99.90;;;;;;4970314;28;20188;-27
2023/12/05 02:18:46;;;;;;;9.10;6.13;;;1.20;99.90;;;;;;4992016;28;20268;-27
2023/12/05 02:21:29;;;;;;;8.50;5.23;;;1.20;99.90;;;;;;4990248;28;20168;-29
2023/12/05 02:24:15;;;;;;;7.83;4.77;;;1.20;99.90;;;;;;4970840;28;20203;-26
2023/12/05 02:26:52;;;;;;;7.13;4.87;;;1.20;99.90;;;;;;4975297;28;20659;-27
2023/12/05 02:29:18;;;;;;;8.53;5.23;;;1.40;99.90;;;;;;4976156;28;20180;-27
2023/12/05 02:31:44;;;;;;;7.93;5.00;;;1.40;99.90;;;;;;5006234;28;20183;-27
2023/12/05 02:34:10;;;;;;;8.67;5.50;;;1.50;99.90;;;;;;4990337;28;20212;-27
2023/12/05 02:36:50;;;;;;;7.70;5.47;;;1.60;99.90;;;;;;4991348;28;20188;-27
2023/12/05 02:39:27;;;;;;;7.87;5.53;;;1.70;99.90;;;;;;5006761;28;20175;-27
2023/12/05 02:41:55;;;;;;;8.97;5.73;;;1.80;99.90;;;;;;4973597;28;20214;-27
2023/12/05 02:44:26;;;;;;;8.47;5.57;;;1.80;99.90;;;;;;5013403;28;20286;-26
2023/12/05 02:46:52;;;;;;;7.83;5.77;;;1.80;99.90;;;;;;4973328;28;20190;-28
2023/12/05 02:49:18;;;;;;;7.43;5.63;;;1.90;99.90;;;;;;4989656;28;20184;-27
2023/12/05 02:51:45;;;;;;;8.63;6.20;;;1.90;99.90;;;;;;4991174;28;20184;-27
2023/12/05 02:54:11;;;;;;;7.13;5.70;;;1.90;99.90;;;;;;4989342;28;20298;-27
2023/12/05 02:56:37;;;;;;;8.53;6.03;;;1.90;99.90;;;;;;4985311;28;20275;-28
2023/12/05 02:59:03;;;;;;;8.53;5.87;;;1.90;99.90;;;;;;4967697;28;20247;-27
2023/12/05 03:01:29;;;;;;;9.53;6.40;;;1.80;99.90;;;;;;4979952;28;20207;-27
2023/12/05 03:03:55;;;;;;;8.93;6.33;;;1.90;99.90;;;;;;4968442;28;20247;-28
2023/12/05 03:06:21;;;;;;;8.87;5.70;;;1.90;99.90;;;;;;4989856;28;20192;-27
2023/12/05 03:08:46;;;;;;;9.00;6.17;;;1.90;99.90;;;;;;4972506;28;20195;-26
2023/12/05 03:11:12;;;;;;;8.90;5.60;;;1.90;99.90;;;;;;4985474;28;20204;-26
2023/12/05 03:13:41;;;;;;;10.43;6.30;;;1.90;99.90;;;;;;4984199;28;20253;-28
2023/12/05 03:16:08;;;;;;;9.53;6.10;;;1.90;99.90;;;;;;5016248;28;20176;-26
2023/12/05 03:18:34;;;;;;;11.20;7.37;;;1.90;99.90;;;;;;4969659;28;20180;-28
2023/12/05 03:21:00;;;;;;;9.60;6.70;;;1.90;99.90;;;;;;4991987;28;20177;-27
2023/12/05 03:23:26;;;;;;;11.33;6.93;;;1.90;99.90;;;;;;4985299;28;20209;-27
2023/12/05 03:25:52;;;;;;;7.03;5.60;;;1.90;99.90;;;;;;4982173;28;20180;-27
2023/12/05 03:28:18;;;;;;;8.87;6.30;;;1.80;99.90;;;;;;4968340;28;20182;-27
2023/12/05 03:30:44;;;;;;;8.23;5.63;;;1.80;99.90;;;;;;4970372;28;20242;-28
2023/12/05 03:33:10;;;;;;;9.27;6.00;;;1.80;99.90;;;;;;4972780;28;20306;-28
2023/12/05 03:35:35;;;;;;;7.93;6.23;;;1.80;99.90;;;;;;4971187;28;20183;-27
2023/12/05 03:38:01;;;;;;;7.93;6.00;;;1.80;99.90;;;;;;4970730;28;20186;-26
2023/12/05 03:40:27;;;;;;;10.53;6.47;;;1.70;99.90;;;;;;4987915;28;20208;-28
2023/12/05 03:42:53;;;;;;;7.77;5.83;;;1.70;99.90;;;;;;4988820;28;20283;-27
2023/12/05 03:45:18;;;;;;;7.77;5.63;;;1.70;99.90;;;;;;5005220;28;20286;-27
2023/12/05 03:47:44;;;;;;;8.67;5.80;;;1.70;99.90;;;;;;4987580;28;20192;-27
2023/12/05 03:50:12;;;;;;;7.60;5.27;;;1.70;99.90;;;;;;4982957;28;20180;-27
2023/12/05 03:52:38;;;;;;;7.63;5.30;;;1.60;99.90;;;;;;4991161;28;20273;-28
2023/12/05 03:55:04;;;;;;;51.27;23.50;;;1.60;99.90;;;;;;4976097;28;20651;-28
2023/12/05 03:57:29;;;;;;;76.50;30.93;;;1.60;99.90;;;;;;4993114;28;20191;-27
2023/12/05 03:59:55;;;;;;;41.77;19.87;;;1.60;99.90;;;;;;4976745;28;20175;-27
2023/12/05 04:02:21;;;;;;;31.77;16.40;;;1.60;99.90;;;;;;4972229;28;20227;-28
2023/12/05 04:04:47;;;;;;;26.90;14.00;;;1.60;99.90;;;;;;4974157;28;20208;-28
2023/12/05 04:07:13;;;;;;;15.60;10.03;;;1.60;99.90;;;;;;4976278;28;20183;-28
2023/12/05 04:09:38;;;;;;;9.63;5.97;;;1.60;99.90;;;;;;4992785;28;20192;-26
2023/12/05 04:12:05;;;;;;;7.07;4.90;;;1.50;99.90;;;;;;4992365;28;20271;-27
2023/12/05 04:14:30;;;;;;;6.43;4.67;;;1.50;99.90;;;;;;4991539;28;20215;-27
2023/12/05 04:16:56;;;;;;;5.97;4.13;;;1.50;99.90;;;;;;4974203;28;20244;-27
2023/12/05 04:19:22;;;;;;;6.90;4.80;;;1.50;99.90;;;;;;4989380;28;20188;-27
2023/12/05 04:21:48;;;;;;;6.23;4.43;;;1.50;99.90;;;;;;4992735;28;20238;-26
2023/12/05 04:24:14;;;;;;;5.50;4.37;;;1.50;99.90;;;;;;4988787;28;20200;-27
2023/12/05 04:26:39;;;;;;;5.73;4.53;;;1.50;99.90;;;;;;5007069;28;20184;-27
2023/12/05 04:29:06;;;;;;;5.67;4.43;;;1.50;99.90;;;;;;4992181;28;20234;-29
2023/12/05 04:31:32;;;;;;;8.33;5.03;;;1.40;99.90;;;;;;4992167;28;20196;-27
2023/12/05 04:33:58;;;;;;;7.03;5.07;;;1.40;99.90;;;;;;4973308;28;20223;-27
2023/12/05 04:36:29;;;;;;;6.93;5.00;;;1.40;99.90;;;;;;4991711;28;20188;-28
2023/12/05 04:38:55;;;;;;;6.97;4.87;;;1.40;99.90;;;;;;4973785;28;20187;-27
2023/12/05 04:41:21;;;;;;;7.20;5.10;;;1.50;99.90;;;;;;5006781;28;20210;-27
2023/12/05 04:43:47;;;;;;;6.53;4.50;;;1.50;99.90;;;;;;4990926;28;20212;-27
2023/12/05 04:46:13;;;;;;;6.97;4.87;;;1.50;99.90;;;;;;4982086;28;20184;-27
2023/12/05 04:48:38;;;;;;;6.30;4.70;;;1.50;99.90;;;;;;4963220;28;20212;-28
2023/12/05 04:51:04;;;;;;;7.63;5.00;;;1.50;99.90;;;;;;4989766;28;20287;-28
2023/12/05 04:53:30;;;;;;;6.63;4.53;;;1.50;99.90;;;;;;4978736;28;20201;-27
2023/12/05 04:55:56;;;;;;;6.90;4.33;;;1.50;99.90;;;;;;4969344;28;20176;-26
2023/12/05 04:58:22;;;;;;;6.30;4.37;;;1.50;99.90;;;;;;4976133;28;20180;-28
2023/12/05 05:00:48;;;;;;;6.67;4.43;;;1.40;99.90;;;;;;4974453;28;20275;-27
2023/12/05 05:03:17;;;;;;;5.67;4.07;;;1.40;99.90;;;;;;4975815;28;20212;-27
2023/12/05 05:05:43;;;;;;;4.57;3.70;;;1.30;99.90;;;;;;4985515;28;20179;-29
2023/12/05 05:08:09;;;;;;;5.47;3.90;;;1.30;99.90;;;;;;4990499;28;20180;-27
2023/12/05 05:10:36;;;;;;;6.23;4.77;;;1.30;99.90;;;;;;4992682;28;20194;-27
2023/12/05 05:13:02;;;;;;;7.43;4.50;;;1.20;99.90;;;;;;4973739;28;20824;-27
2023/12/05 05:15:27;;;;;;;6.73;4.83;;;1.20;99.90;;;;;;4990805;28;20192;-27
2023/12/05 05:17:53;;;;;;;8.13;5.87;;;1.20;99.90;;;;;;4993923;28;20176;-28
2023/12/05 05:20:20;;;;;;;13.57;11.17;;;1.20;99.90;;;;;;4973297;28;20192;-26
2023/12/05 05:22:47;;;;;;;13.33;11.27;;;1.30;99.90;;;;;;4960542;28;20259;-27
2023/12/05 05:25:13;;;;;;;12.93;10.57;;;1.20;99.90;;;;;;4967084;28;20179;-26
2023/12/05 05:27:38;;;;;;;11.40;10.03;;;1.30;99.90;;;;;;4973392;28;20188;-28
2023/12/05 05:30:05;;;;;;;10.87;7.10;;;1.30;99.90;;;;;;4992300;28;20191;-27
2023/12/05 05:32:30;;;;;;;8.57;6.33;;;1.40;99.90;;;;;;4969694;28;20204;-28
2023/12/05 05:34:56;;;;;;;9.87;5.37;;;1.50;99.90;;;;;;5007270;28;20191;-26
2023/12/05 05:37:22;;;;;;;16.43;12.20;;;1.70;99.90;;;;;;4990693;28;20187;-27
2023/12/05 05:39:48;;;;;;;8.10;6.10;;;1.70;99.90;;;;;;4987904;28;20242;-28
2023/12/05 05:42:15;;;;;;;6.83;4.87;;;1.80;99.90;;;;;;4998708;28;20187;-27
2023/12/05 05:44:41;;;;;;;12.03;5.77;;;1.80;99.90;;;;;;4988697;28;20216;-27
2023/12/05 05:47:06;;;;;;;7.67;4.70;;;1.70;99.90;;;;;;5006451;28;20254;-28
2023/12/05 05:49:32;;;;;;;7.83;4.33;;;1.70;99.90;;;;;;4988125;28;20275;-27
2023/12/05 05:51:58;;;;;;;6.67;3.90;;;1.70;99.90;;;;;;4975115;28;20644;-28
2023/12/05 05:54:24;;;;;;;15.10;8.33;;;1.60;99.90;;;;;;4969460;28;20275;-27
2023/12/05 05:56:50;;;;;;;14.97;7.60;;;1.60;99.90;;;;;;4997829;28;20207;-27
2023/12/05 05:59:15;;;;;;;6.23;3.80;;;1.50;99.90;;;;;;4991279;28;20247;-27
2023/12/05 06:01:41;;;;;;;5.73;3.63;;;1.50;99.90;;;;;;4973409;28;20184;-27
2023/12/05 06:04:07;;;;;;;7.40;4.37;;;1.50;99.90;;;;;;4989260;28;20273;-27
2023/12/05 06:06:33;;;;;;;4.47;3.83;;;1.40;99.90;;;;;;4963528;28;20203;-27
2023/12/05 06:08:59;;;;;;;5.50;3.73;;;1.50;99.90;;;;;;4973031;28;20207;-27
2023/12/05 06:11:25;;;;;;;6.37;3.93;;;1.60;99.90;;;;;;5006481;28;20275;-27
2023/12/05 06:13:51;;;;;;;6.30;3.87;;;1.70;99.90;;;;;;4989625;28;20302;-27
2023/12/05 06:16:16;;;;;;;6.67;4.77;;;1.70;99.90;;;;;;5006378;28;20192;-27
2023/12/05 06:18:42;;;;;;;6.77;4.73;;;1.70;99.90;;;;;;5008046;28;20232;-28
2023/12/05 06:21:08;;;;;;;5.87;4.03;;;1.70;99.90;;;;;;5017859;28;20168;-27
2023/12/05 06:23:34;;;;;;;5.70;3.63;;;1.70;99.90;;;;;;4971642;28;20211;-27
2023/12/05 06:26:00;;;;;;;6.13;3.73;;;1.70;99.90;;;;;;4971688;28;20195;-28
2023/12/05 06:28:25;;;;;;;4.50;3.53;;;1.70;99.90;;;;;;4969867;28;20188;-27
2023/12/05 06:30:52;;;;;;;4.87;3.53;;;1.70;99.90;;;;;;4971698;28;20195;-26
2023/12/05 06:33:17;;;;;;;6.30;3.73;;;1.70;99.90;;;;;;4971117;28;20212;-27
2023/12/05 06:35:43;;;;;;;5.97;3.23;;;1.70;99.90;;;;;;4970979;28;20191;-27
2023/12/05 06:38:09;;;;;;;4.70;3.33;;;1.70;99.90;;;;;;4990714;28;20275;-27
2023/12/05 06:40:35;;;;;;;5.90;4.27;;;1.70;99.90;;;;;;4991059;28;20187;-27
2023/12/05 06:43:01;;;;;;;4.43;2.70;;;1.80;99.90;;;;;;4992066;28;20211;-28
2023/12/05 06:45:27;;;;;;;4.87;3.20;;;1.90;99.90;;;;;;5023246;28;20258;-27
2023/12/05 06:47:53;;;;;;;4.13;3.00;;;1.90;99.90;;;;;;5007365;28;20182;-28
2023/12/05 06:50:19;;;;;;;6.27;3.33;;;2.00;99.90;;;;;;4997062;28;20188;-27
2023/12/05 06:52:45;;;;;;;7.00;3.93;;;2.00;99.90;;;;;;4972884;28;20693;-26
2023/12/05 06:55:10;;;;;;;4.33;3.57;;;2.10;99.90;;;;;;4954794;28;20188;-26
2023/12/05 06:57:36;;;;;;;8.33;4.03;;;2.10;99.90;;;;;;5003227;28;20177;-27
2023/12/05 07:00:03;;;;;;;6.13;3.90;;;2.10;99.90;;;;;;4955026;28;20180;-27
2023/12/05 07:02:30;;;;;;;7.87;3.40;;;2.20;99.90;;;;;;4953791;28;20220;-27
2023/12/05 07:04:57;;;;;;;8.47;6.20;;;2.20;99.90;;;;;;4985507;28;20198;-27
2023/12/05 07:07:24;;;;;;;11.40;7.13;;;2.10;99.90;;;;;;4974299;28;20176;-28
2023/12/05 07:09:51;;;;;;;9.90;7.07;;;2.00;99.90;;;;;;4974431;28;20256;-28
2023/12/05 07:12:17;;;;;;;11.87;6.73;;;1.80;99.90;;;;;;4990202;28;20187;-27
2023/12/05 07:14:42;;;;;;;10.27;5.20;;;1.70;99.90;;;;;;4989814;28;20211;-27
2023/12/05 07:17:08;;;;;;;7.10;5.00;;;1.60;99.90;;;;;;4998201;28;20215;-27
2023/12/05 07:19:34;;;;;;;6.23;4.40;;;1.50;99.90;;;;;;5023072;28;20246;-28
2023/12/05 07:22:00;;;;;;;6.53;4.53;;;1.50;99.90;;;;;;5006540;28;20171;-28
2023/12/05 07:24:25;;;;;;;5.70;4.00;;;1.50;99.90;;;;;;5006386;28;20200;-27
2023/12/05 07:26:51;;;;;;;5.20;4.07;;;1.40;99.90;;;;;;5005816;28;20211;-27
2023/12/05 07:29:17;;;;;;;9.53;5.00;;;1.40;99.90;;;;;;5006628;28;20188;-28
2023/12/05 07:31:43;;;;;;;6.67;4.63;;;1.30;99.90;;;;;;5006536;28;20187;-27
2023/12/05 07:34:09;;;;;;;6.80;5.20;;;1.30;99.90;;;;;;5006113;28;20212;-28
2023/12/05 07:36:40;;;;;;;7.60;4.90;;;1.30;99.90;;;;;;4990362;28;20184;-28
2023/12/05 07:39:06;;;;;;;8.20;4.33;;;1.30;99.90;;;;;;5006774;28;20184;-27
2023/12/05 07:41:32;;;;;;;5.43;4.20;;;1.30;99.90;;;;;;5006356;28;20175;-27
2023/12/05 07:43:58;;;;;;;7.77;4.47;;;1.30;99.90;;;;;;5016674;28;20290;-26
2023/12/05 07:46:24;;;;;;;6.03;3.87;;;1.40;99.90;;;;;;5022525;28;20326;-27
2023/12/05 07:48:49;;;;;;;5.63;3.30;;;1.40;99.90;;;;;;5022882;28;20191;-28
2023/12/05 07:51:16;;;;;;;7.03;4.33;;;1.40;99.90;;;;;;4990151;28;20222;-27
2023/12/05 07:53:43;;;;;;;5.60;3.43;;;1.50;99.90;;;;;;5022675;28;20215;-27
2023/12/05 07:56:09;;;;;;;4.33;3.17;;;1.50;99.90;;;;;;4989578;28;20180;-27
2023/12/05 07:58:35;;;;;;;4.17;2.73;;;1.50;99.90;;;;;;5005810;28;20279;-28
2023/12/05 08:01:01;;;;;;;4.73;3.17;;;1.50;99.90;;;;;;5006391;28;20199;-27
2023/12/05 08:03:28;;;;;;;6.27;5.07;;;1.60;99.90;;;;;;5006431;28;20214;-28
2023/12/05 08:05:54;;;;;;;10.73;7.03;;;1.70;99.90;;;;;;4989737;28;20184;-27
2023/12/05 08:08:20;;;;;;;7.00;5.23;;;1.70;99.90;;;;;;4973650;28;20188;-26
2023/12/05 08:10:47;;;;;;;8.63;4.27;;;1.70;99.90;;;;;;4973753;28;20184;-27
2023/12/05 08:13:13;;;;;;;5.73;3.63;;;1.80;99.90;;;;;;4973008;28;20212;-26
2023/12/05 08:15:39;;;;;;;6.50;3.50;;;1.90;99.90;;;;;;5022358;28;20191;-28
2023/12/05 08:18:05;;;;;;;5.57;3.30;;;2.00;99.90;;;;;;5022333;28;20266;-28
2023/12/05 08:20:30;;;;;;;6.03;3.70;;;2.20;99.90;;;;;;5006281;28;20188;-28
2023/12/05 08:22:56;;;;;;;5.47;2.87;;;2.30;99.90;;;;;;4989695;28;20291;-26
2023/12/05 08:25:22;;;;;;;6.43;3.23;;;2.50;99.90;;;;;;5006156;28;20180;-27
2023/12/05 08:27:49;;;;;;;5.90;3.70;;;2.60;99.90;;;;;;5005230;28;20187;-26
2023/12/05 08:30:15;;;;;;;5.00;3.60;;;2.80;99.90;;;;;;5005987;28;20203;-27
2023/12/05 08:32:41;;;;;;;4.93;3.10;;;2.90;99.90;;;;;;4989855;28;20212;-28
2023/12/05 08:35:08;;;;;;;4.77;2.80;;;3.10;99.90;;;;;;4991280;28;20195;-28
2023/12/05 08:37:33;;;;;;;6.57;3.30;;;3.30;99.90;;;;;;4989547;28;20184;-27
2023/12/05 08:39:59;;;;;;;4.97;2.50;;;3.50;99.90;;;;;;4994021;28;20182;-27
2023/12/05 08:42:27;;;;;;;4.63;2.60;;;3.50;99.90;;;;;;5025009;28;20200;-27
2023/12/05 08:44:54;;;;;;;5.47;2.60;;;3.60;99.90;;;;;;5005670;28;20192;-27
2023/12/05 08:47:20;;;;;;;3.80;2.93;;;3.60;99.90;;;;;;5009288;28;20184;-27
2023/12/05 08:49:45;;;;;;;3.93;3.00;;;3.60;99.90;;;;;;5008712;28;20198;-26
2023/12/05 08:52:11;;;;;;;7.30;2.93;;;3.60;99.90;;;;;;5007791;28;20196;-28
2023/12/05 08:54:37;;;;;;;3.77;2.63;;;3.70;99.90;;;;;;4992662;28;20216;-28
2023/12/05 08:57:03;;;;;;;9.77;3.70;;;3.80;99.90;;;;;;5008820;28;20188;-28
2023/12/05 08:59:29;;;;;;;13.67;5.37;;;3.90;99.90;;;;;;4992653;28;20187;-28
2023/12/05 09:01:55;;;;;;;9.70;4.60;;;4.00;99.90;;;;;;4992773;28;20216;-28
2023/12/05 09:04:20;;;;;;;10.77;4.23;;;4.10;99.90;;;;;;4994610;28;20237;-27
2023/12/05 09:06:46;;;;;;;8.47;3.93;;;4.10;99.90;;;;;;4989802;28;20195;-28
2023/12/05 09:09:12;;;;;;;7.03;4.03;;;4.10;99.90;;;;;;4991179;28;20231;-28
2023/12/05 09:11:38;;;;;;;8.37;4.30;;;4.30;99.90;;;;;;4992658;28;20189;-28
2023/12/05 09:14:05;;;;;;;7.60;4.10;;;4.40;99.90;;;;;;4990307;28;20680;-28
2023/12/05 09:16:32;;;;;;;6.00;3.80;;;4.60;99.90;;;;;;4993573;28;20238;-28
2023/12/05 09:18:58;;;;;;;4.87;3.00;;;4.70;99.90;;;;;;4992690;28;20645;-28
2023/12/05 09:21:24;;;;;;;3.50;2.77;;;4.70;99.90;;;;;;4992997;28;20207;-28
2023/12/05 09:23:49;;;;;;;4.67;2.87;;;4.70;99.90;;;;;;4992517;28;20217;-27
2023/12/05 09:26:15;;;;;;;5.63;2.97;;;4.80;99.90;;;;;;4992564;28;20253;-28
2023/12/05 09:28:41;;;;;;;6.00;3.10;;;4.80;99.90;;;;;;4976463;28;20228;-29
2023/12/05 09:31:07;;;;;;;6.73;4.37;;;4.80;99.90;;;;;;4993682;28;20197;-28
2023/12/05 09:33:33;;;;;;;5.83;3.83;;;4.80;99.90;;;;;;4992497;28;20216;-28
2023/12/05 09:35:59;;;;;;;7.00;4.77;;;4.80;99.90;;;;;;4976305;28;20182;-29
2023/12/05 09:38:24;;;;;;;5.63;4.07;;;4.80;99.90;;;;;;4993213;28;20178;-28
2023/12/05 09:40:51;;;;;;;5.57;3.27;;;4.80;99.90;;;;;;4992680;28;20187;-28
2023/12/05 09:43:21;;;;;;;4.37;2.97;;;4.80;99.90;;;;;;4992183;28;20226;-28
2023/12/05 09:45:50;;;;;;;3.77;2.60;;;4.80;99.90;;;;;;4986106;28;20206;-28
2023/12/05 09:48:21;;;;;;;3.90;2.80;;;4.80;99.90;;;;;;4972805;28;20187;-28
2023/12/05 09:50:47;;;;;;;5.50;3.13;;;4.80;99.90;;;;;;4956451;28;20276;-28
2023/12/05 09:53:14;;;;;;;6.43;3.67;;;4.80;99.90;;;;;;4972126;28;20302;-28
2023/12/05 09:55:40;;;;;;;6.73;3.53;;;4.80;99.90;;;;;;4972764;28;20184;-28
2023/12/05 09:58:07;;;;;;;5.27;3.37;;;4.80;99.90;;;;;;4956410;28;20179;-29
2023/12/05 10:00:33;;;;;;;10.90;3.77;;;4.80;99.90;;;;;;4955735;28;20258;-28
2023/12/05 10:03:04;;;;;;;4.93;2.83;;;4.80;99.90;;;;;;4956287;28;20279;-29
2023/12/05 10:05:32;;;;;;;3.83;2.00;;;4.90;99.90;;;;;;4988203;28;20653;-27
2023/12/05 10:07:59;;;;;;;3.73;2.37;;;4.90;99.90;;;;;;4971443;28;20192;-28
2023/12/05 10:10:26;;;;;;;3.17;1.87;;;5.00;99.90;;;;;;4955573;28;20179;-28
2023/12/05 10:12:52;;;;;;;5.00;2.20;;;5.10;99.90;;;;;;4958134;28;20300;-29
2023/12/05 10:15:19;;;;;;;4.20;2.20;;;5.30;99.90;;;;;;4973191;28;20182;-28
2023/12/05 10:17:46;;;;;;;2.87;1.97;;;5.30;99.90;;;;;;4971121;28;20220;-28
2023/12/05 10:20:12;;;;;;;2.87;1.77;;;5.40;99.90;;;;;;4955676;28;20180;-28
2023/12/05 10:22:40;;;;;;;6.43;2.63;;;5.50;99.90;;;;;;4956140;28;20235;-28
2023/12/05 10:25:08;;;;;;;3.93;2.30;;;5.70;99.90;;;;;;4955311;28;20183;-28
2023/12/05 10:27:34;;;;;;;4.50;1.60;;;5.70;99.90;;;;;;4955495;28;20236;-29
2023/12/05 10:30:00;;;;;;;3.87;1.70;;;5.80;99.90;;;;;;4973098;28;20188;-28
2023/12/05 10:32:27;;;;;;;3.37;1.70;;;5.90;99.90;;;;;;4971476;28;20211;-29
2023/12/05 10:34:56;;;;;;;3.00;1.40;;;6.00;99.90;;;;;;4971316;28;20212;-28
2023/12/05 10:37:28;;;;;;;3.53;1.60;;;6.10;99.90;;;;;;4971613;28;20642;-29
2023/12/05 10:40:01;;;;;;;2.47;1.53;;;6.10;99.90;;;;;;4955193;28;20187;-29
2023/12/05 10:42:28;;;;;;;4.13;2.13;;;6.10;99.90;;;;;;4971478;28;20205;-28
2023/12/05 10:44:55;;;;;;;5.70;2.40;;;6.10;99.90;;;;;;4970418;28;20219;-28
2023/12/05 10:47:22;;;;;;;5.50;2.00;;;6.10;99.90;;;;;;4986089;28;20191;-29
2023/12/05 10:49:49;;;;;;;3.97;2.00;;;6.10;99.90;;;;;;4985077;28;20191;-28
2023/12/05 10:52:15;;;;;;;5.33;1.90;;;6.00;99.90;;;;;;4990243;28;20184;-29
2023/12/05 10:54:43;;;;;;;3.13;1.90;;;6.10;99.90;;;;;;4990638;28;20208;-28
2023/12/05 10:57:10;;;;;;;4.70;2.13;;;6.10;99.90;;;;;;5006835;28;20186;-28
2023/12/05 10:59:37;;;;;;;6.23;2.83;;;6.10;99.90;;;;;;4990666;28;20188;-28
2023/12/05 11:02:14;;;;;;;5.00;2.60;;;6.10;99.90;;;;;;5006661;28;20179;-28
2023/12/05 11:04:41;;;;;;;6.23;2.60;;;6.10;99.90;;;;;;4987333;28;20200;-28
2023/12/05 11:07:08;;;;;;;3.20;1.77;;;6.10;99.90;;;;;;4970168;28;20187;-29
2023/12/05 11:09:34;;;;;;;2.47;1.60;;;6.20;99.90;;;;;;4987618;28;20188;-28
2023/12/05 11:12:05;;;;;;;2.83;1.60;;;6.20;99.90;;;;;;4970953;28;20204;-28
2023/12/05 11:14:34;;;;;;;3.00;1.40;;;6.30;99.90;;;;;;4987936;28;20207;-27
2023/12/05 11:17:03;;;;;;;2.10;1.20;;;6.30;99.90;;;;;;4990244;28;20190;-28
2023/12/05 11:20:02;;;;;;;4.53;1.20;;;6.30;99.90;;;;;;4990637;28;20245;-28
2023/12/05 11:22:53;;;;;;;3.83;1.50;;;6.30;99.90;;;;;;5006586;28;20214;-28
2023/12/05 11:25:22;;;;;;;1.90;1.37;;;6.30;99.90;;;;;;4990213;28;20180;-28
2023/12/05 11:28:12;;;;;;;2.50;1.70;;;6.30;99.90;;;;;;4991425;28;20180;-28
2023/12/05 11:30:52;;;;;;;3.63;1.37;;;6.40;99.90;;;;;;4989513;28;20221;-28
2023/12/05 11:33:37;;;;;;;1.80;1.40;;;6.40;99.90;;;;;;4989618;28;20207;-27
2023/12/05 11:36:09;;;;;;;2.33;1.23;;;6.50;99.90;;;;;;5022729;28;20183;-28
2023/12/05 11:38:35;;;;;;;2.07;1.17;;;6.50;99.90;;;;;;4990320;28;20188;-28
2023/12/05 11:41:17;;;;;;;3.20;1.70;;;6.50;99.90;;;;;;5006371;28;20188;-28
2023/12/05 11:44:03;;;;;;;1.67;1.43;;;6.50;99.90;;;;;;5011949;28;20203;-27
2023/12/05 11:46:35;;;;;;;2.27;1.40;;;6.60;99.90;;;;;;5005944;28;20191;-27
2023/12/05 11:49:04;;;;;;;5.73;2.80;;;6.70;99.90;;;;;;5022599;28;20262;-27
2023/12/05 11:51:35;;;;;;;2.87;1.50;;;6.70;99.90;;;;;;5006060;28;20176;-27
2023/12/05 11:54:02;;;;;;;1.57;1.00;;;6.70;99.90;;;;;;5005344;28;20266;-27
2023/12/05 11:56:30;;;;;;;5.63;1.50;;;6.70;99.90;;;;;;4991251;28;20184;-28
2023/12/05 11:59:14;;;;;;;3.47;1.60;;;6.70;99.90;;;;;;4973764;28;20184;-27
2023/12/05 12:01:45;;;;;;;2.73;1.30;;;6.70;99.90;;;;;;4989766;28;20175;-27
2023/12/05 12:04:22;;;;;;;3.50;1.40;;;6.70;99.90;;;;;;5009993;28;20228;-27
2023/12/05 12:06:49;;;;;;;2.77;1.60;;;6.70;99.90;;;;;;4966376;28;20212;-28
2023/12/05 12:09:15;;;;;;;1.63;1.40;;;6.80;99.90;;;;;;4990313;28;20182;-27
2023/12/05 12:11:42;;;;;;;1.33;1.23;;;6.90;99.90;;;;;;4988663;28;20231;-27
2023/12/05 12:14:16;;;;;;;1.73;1.00;;;6.90;99.90;;;;;;4970700;28;20227;-27
2023/12/05 12:16:44;;;;;;;1.93;1.20;;;7.00;99.90;;;;;;4994869;28;20185;-27
2023/12/05 12:19:12;;;;;;;2.67;1.30;;;7.00;99.90;;;;;;4958454;28;20176;-27
2023/12/05 12:21:44;;;;;;;1.73;1.20;;;7.00;99.90;;;;;;4992421;28;20172;-27
2023/12/05 12:24:33;;;;;;;1.70;1.20;;;7.10;99.90;;;;;;5014093;28;20197;-26
2023/12/05 12:27:11;;;;;;;2.13;1.40;;;7.10;99.90;;;;;;4983819;28;20172;-26
2023/12/05 12:29:57;;;;;;;1.53;1.20;;;7.10;99.90;;;;;;5008574;28;20208;-27
2023/12/05 12:32:48;;;;;;;2.57;1.97;;;7.10;99.90;;;;;;5016412;28;20242;-27
2023/12/05 12:35:14;;;;;;;2.60;1.77;;;7.10;99.90;;;;;;5007274;28;20219;-27
2023/12/05 12:37:40;;;;;;;3.93;1.90;;;7.20;99.90;;;;;;4973174;28;20187;-26
2023/12/05 12:40:07;;;;;;;2.87;1.60;;;7.20;99.90;;;;;;4972576;28;20184;-26
2023/12/05 12:42:33;;;;;;;3.93;1.80;;;7.20;99.90;;;;;;4966898;28;20207;-26
2023/12/05 12:45:01;;;;;;;4.67;2.10;;;7.20;99.90;;;;;;4990860;28;20262;-27
2023/12/05 12:47:27;;;;;;;2.60;1.50;;;7.20;99.90;;;;;;4969748;28;20362;-27
2023/12/05 12:49:53;;;;;;;2.33;1.43;;;7.20;99.90;;;;;;4991325;28;20319;-28
2023/12/05 12:52:19;;;;;;;2.20;1.70;;;7.20;99.90;;;;;;4975214;28;20184;-28
2023/12/05 12:54:45;;;;;;;3.53;2.00;;;7.30;99.90;;;;;;4958077;28;20262;-27